sensor_id;sensor_type;location;lat;lon;timestamp;temperature;humidity
40289;DHT22;28991;52.028;5.526;2022-09-01T00:02:14;23.80;47.20
40289;DHT22;28991;52.028;5.526;2022-09-01T00:04:42;23.90;47.20
40289;DHT22;28991;52.028;5.526;2022-09-01T00:07:10;23.80;47.20
40289;DHT22;28991;52.028;5.526;2022-09-01T00:09:37;23.90;47.30
40289;DHT22;28991;52.028;5.526;2022-09-01T00:12:05;23.80;47.20
40289;DHT22;28991;52.028;5.526;2022-09-01T00:14:34;23.90;47.30
40289;DHT22;28991;52.028;5.526;2022-09-01T00:17:04;23.90;47.30
40289;DHT22;28991;52.028;5.526;2022-09-01T00:19:30;23.90;47.30
40289;DHT22;28991;52.028;5.526;2022-09-01T00:21:58;23.80;47.30
40289;DHT22;28991;52.028;5.526;2022-09-01T00:24:25;23.80;47.30
40289;DHT22;28991;52.028;5.526;2022-09-01T00:26:52;23.90;47.30
40289;DHT22;28991;52.028;5.526;2022-09-01T00:29:18;23.80;47.30
40289;DHT22;28991;52.028;5.526;2022-09-01T00:31:43;23.80;47.30
40289;DHT22;28991;52.028;5.526;2022-09-01T00:34:12;23.90;47.40
40289;DHT22;28991;52.028;5.526;2022-09-01T00:36:38;24.50;47.70
40289;DHT22;28991;52.028;5.526;2022-09-01T00:39:04;23.80;47.30
40289;DHT22;28991;52.028;5.526;2022-09-01T00:41:33;23.80;47.30
40289;DHT22;28991;52.028;5.526;2022-09-01T00:44:02;23.80;47.40
40289;DHT22;28991;52.028;5.526;2022-09-01T00:46:35;23.80;47.40
40289;DHT22;28991;52.028;5.526;2022-09-01T00:49:11;23.80;47.40
40289;DHT22;28991;52.028;5.526;2022-09-01T00:51:41;23.80;47.40
40289;DHT22;28991;52.028;5.526;2022-09-01T00:54:11;23.80;47.40
40289;DHT22;28991;52.028;5.526;2022-09-01T00:56:39;23.90;47.40
40289;DHT22;28991;52.028;5.526;2022-09-01T00:59:06;23.80;47.40
40289;DHT22;28991;52.028;5.526;2022-09-01T01:01:34;23.80;47.40
40289;DHT22;28991;52.028;5.526;2022-09-01T01:04:02;23.90;47.40
40289;DHT22;28991;52.028;5.526;2022-09-01T01:06:27;23.80;47.40
40289;DHT22;28991;52.028;5.526;2022-09-01T01:08:55;23.80;47.40
40289;DHT22;28991;52.028;5.526;2022-09-01T01:11:22;23.80;47.40
40289;DHT22;28991;52.028;5.526;2022-09-01T01:16:26;23.80;47.40
40289;DHT22;28991;52.028;5.526;2022-09-01T01:18:53;23.80;47.40
40289;DHT22;28991;52.028;5.526;2022-09-01T01:21:22;23.90;47.50
40289;DHT22;28991;52.028;5.526;2022-09-01T01:24:17;23.90;47.50
40289;DHT22;28991;52.028;5.526;2022-09-01T01:26:44;23.80;47.50
40289;DHT22;28991;52.028;5.526;2022-09-01T01:29:10;23.80;47.50
40289;DHT22;28991;52.028;5.526;2022-09-01T01:31:36;23.80;47.50
40289;DHT22;28991;52.028;5.526;2022-09-01T01:34:02;23.80;47.50
40289;DHT22;28991;52.028;5.526;2022-09-01T01:36:34;23.80;47.50
40289;DHT22;28991;52.028;5.526;2022-09-01T01:39:30;23.80;47.50
40289;DHT22;28991;52.028;5.526;2022-09-01T01:41:56;23.80;48.10
40289;DHT22;28991;52.028;5.526;2022-09-01T01:44:24;23.80;47.50
40289;DHT22;28991;52.028;5.526;2022-09-01T01:46:53;23.80;47.50
40289;DHT22;28991;52.028;5.526;2022-09-01T01:49:21;23.70;47.50
40289;DHT22;28991;52.028;5.526;2022-09-01T01:51:49;23.80;47.50
40289;DHT22;28991;52.028;5.526;2022-09-01T01:54:17;23.90;47.60
40289;DHT22;28991;52.028;5.526;2022-09-01T01:56:44;23.80;47.50
40289;DHT22;28991;52.028;5.526;2022-09-01T01:59:09;23.80;47.60
40289;DHT22;28991;52.028;5.526;2022-09-01T02:01:39;23.80;47.60
40289;DHT22;28991;52.028;5.526;2022-09-01T02:04:08;23.90;47.70
40289;DHT22;28991;52.028;5.526;2022-09-01T02:06:34;23.80;47.60
40289;DHT22;28991;52.028;5.526;2022-09-01T02:09:01;23.80;47.60
40289;DHT22;28991;52.028;5.526;2022-09-01T02:11:27;23.80;47.60
40289;DHT22;28991;52.028;5.526;2022-09-01T02:13:54;24.20;47.80
40289;DHT22;28991;52.028;5.526;2022-09-01T02:16:20;23.80;47.60
40289;DHT22;28991;52.028;5.526;2022-09-01T02:18:47;23.80;47.60
40289;DHT22;28991;52.028;5.526;2022-09-01T02:21:16;23.80;47.60
40289;DHT22;28991;52.028;5.526;2022-09-01T02:23:47;23.80;47.60
40289;DHT22;28991;52.028;5.526;2022-09-01T02:26:14;23.80;47.60
40289;DHT22;28991;52.028;5.526;2022-09-01T02:28:41;23.80;47.60
40289;DHT22;28991;52.028;5.526;2022-09-01T02:31:08;23.80;47.70
40289;DHT22;28991;52.028;5.526;2022-09-01T02:33:36;23.80;47.70
40289;DHT22;28991;52.028;5.526;2022-09-01T02:36:09;23.80;47.70
40289;DHT22;28991;52.028;5.526;2022-09-01T02:38:37;23.80;47.70
40289;DHT22;28991;52.028;5.526;2022-09-01T02:41:05;23.80;47.70
40289;DHT22;28991;52.028;5.526;2022-09-01T02:43:32;23.80;47.70
40289;DHT22;28991;52.028;5.526;2022-09-01T02:46:00;23.80;47.70
40289;DHT22;28991;52.028;5.526;2022-09-01T02:48:33;23.80;47.70
40289;DHT22;28991;52.028;5.526;2022-09-01T02:51:07;23.80;47.70
40289;DHT22;28991;52.028;5.526;2022-09-01T02:53:37;23.80;47.70
40289;DHT22;28991;52.028;5.526;2022-09-01T02:56:05;23.80;47.80
40289;DHT22;28991;52.028;5.526;2022-09-01T02:58:35;23.80;47.80
40289;DHT22;28991;52.028;5.526;2022-09-01T03:01:14;23.80;47.80
40289;DHT22;28991;52.028;5.526;2022-09-01T03:03:41;23.80;47.80
40289;DHT22;28991;52.028;5.526;2022-09-01T03:06:06;23.80;47.80
40289;DHT22;28991;52.028;5.526;2022-09-01T03:08:34;24.00;47.90
40289;DHT22;28991;52.028;5.526;2022-09-01T03:11:03;23.80;47.80
40289;DHT22;28991;52.028;5.526;2022-09-01T03:13:32;23.80;47.80
40289;DHT22;28991;52.028;5.526;2022-09-01T03:15:58;23.80;47.80
40289;DHT22;28991;52.028;5.526;2022-09-01T03:18:23;23.80;47.80
40289;DHT22;28991;52.028;5.526;2022-09-01T03:20:49;23.80;47.80
40289;DHT22;28991;52.028;5.526;2022-09-01T03:23:17;23.80;47.80
40289;DHT22;28991;52.028;5.526;2022-09-01T03:25:44;23.80;47.80
40289;DHT22;28991;52.028;5.526;2022-09-01T03:28:11;23.70;47.80
40289;DHT22;28991;52.028;5.526;2022-09-01T03:30:39;23.80;47.80
40289;DHT22;28991;52.028;5.526;2022-09-01T03:33:08;23.80;47.80
40289;DHT22;28991;52.028;5.526;2022-09-01T03:35:34;23.80;47.90
40289;DHT22;28991;52.028;5.526;2022-09-01T03:38:00;23.80;47.90
40289;DHT22;28991;52.028;5.526;2022-09-01T03:40:33;23.60;47.80
40289;DHT22;28991;52.028;5.526;2022-09-01T03:43:05;23.80;47.90
40289;DHT22;28991;52.028;5.526;2022-09-01T03:45:31;23.80;47.90
40289;DHT22;28991;52.028;5.526;2022-09-01T03:48:06;23.80;47.90
40289;DHT22;28991;52.028;5.526;2022-09-01T03:50:34;23.70;47.80
40289;DHT22;28991;52.028;5.526;2022-09-01T03:53:04;23.80;47.90
40289;DHT22;28991;52.028;5.526;2022-09-01T03:55:32;23.80;47.90
40289;DHT22;28991;52.028;5.526;2022-09-01T03:58:02;23.80;47.90
40289;DHT22;28991;52.028;5.526;2022-09-01T04:00:32;23.80;47.90
40289;DHT22;28991;52.028;5.526;2022-09-01T04:03:01;23.80;48.00
40289;DHT22;28991;52.028;5.526;2022-09-01T04:05:29;23.80;47.90
40289;DHT22;28991;52.028;5.526;2022-09-01T04:07:56;23.80;47.70
40289;DHT22;28991;52.028;5.526;2022-09-01T04:10:23;23.90;47.50
40289;DHT22;28991;52.028;5.526;2022-09-01T04:12:49;24.10;47.50
40289;DHT22;28991;52.028;5.526;2022-09-01T04:15:16;24.00;47.30
40289;DHT22;28991;52.028;5.526;2022-09-01T04:17:45;24.00;47.10
40289;DHT22;28991;52.028;5.526;2022-09-01T04:20:52;24.00;47.00
40289;DHT22;28991;52.028;5.526;2022-09-01T04:23:21;23.90;46.90
40289;DHT22;28991;52.028;5.526;2022-09-01T04:25:56;24.00;46.90
40289;DHT22;28991;52.028;5.526;2022-09-01T04:28:23;24.00;46.90
40289;DHT22;28991;52.028;5.526;2022-09-01T04:31:13;23.90;46.80
40289;DHT22;28991;52.028;5.526;2022-09-01T04:33:39;23.90;46.80
40289;DHT22;28991;52.028;5.526;2022-09-01T04:36:20;23.90;46.80
40289;DHT22;28991;52.028;5.526;2022-09-01T04:38:47;23.80;46.70
40289;DHT22;28991;52.028;5.526;2022-09-01T04:41:14;23.80;46.40
40289;DHT22;28991;52.028;5.526;2022-09-01T04:43:42;23.80;46.30
40289;DHT22;28991;52.028;5.526;2022-09-01T04:46:09;23.80;46.50
40289;DHT22;28991;52.028;5.526;2022-09-01T04:48:37;23.70;46.30
40289;DHT22;28991;52.028;5.526;2022-09-01T04:51:07;23.70;46.00
40289;DHT22;28991;52.028;5.526;2022-09-01T04:53:35;23.60;45.90
40289;DHT22;28991;52.028;5.526;2022-09-01T04:56:05;23.60;45.50
40289;DHT22;28991;52.028;5.526;2022-09-01T04:58:32;23.60;45.40
40289;DHT22;28991;52.028;5.526;2022-09-01T05:00:59;23.50;45.30
40289;DHT22;28991;52.028;5.526;2022-09-01T05:03:25;23.50;45.20
40289;DHT22;28991;52.028;5.526;2022-09-01T05:05:51;23.50;45.20
40289;DHT22;28991;52.028;5.526;2022-09-01T05:08:20;23.40;45.00
40289;DHT22;28991;52.028;5.526;2022-09-01T05:10:48;23.50;44.80
40289;DHT22;28991;52.028;5.526;2022-09-01T05:13:16;23.40;44.90
40289;DHT22;28991;52.028;5.526;2022-09-01T05:15:44;23.40;44.90
40289;DHT22;28991;52.028;5.526;2022-09-01T05:18:15;23.40;44.60
40289;DHT22;28991;52.028;5.526;2022-09-01T05:20:41;23.30;44.50
40289;DHT22;28991;52.028;5.526;2022-09-01T05:23:11;23.30;44.40
40289;DHT22;28991;52.028;5.526;2022-09-01T05:25:38;23.50;44.60
40289;DHT22;28991;52.028;5.526;2022-09-01T05:28:04;23.20;44.40
40289;DHT22;28991;52.028;5.526;2022-09-01T05:30:29;23.20;44.30
40289;DHT22;28991;52.028;5.526;2022-09-01T05:32:55;23.20;44.20
40289;DHT22;28991;52.028;5.526;2022-09-01T05:35:20;23.20;44.20
40289;DHT22;28991;52.028;5.526;2022-09-01T05:37:49;23.10;44.10
40289;DHT22;28991;52.028;5.526;2022-09-01T05:40:16;23.20;44.10
40289;DHT22;28991;52.028;5.526;2022-09-01T05:42:43;23.40;44.10
40289;DHT22;28991;52.028;5.526;2022-09-01T05:45:09;23.10;43.90
40289;DHT22;28991;52.028;5.526;2022-09-01T05:47:37;23.10;43.80
40289;DHT22;28991;52.028;5.526;2022-09-01T05:50:04;23.10;43.80
40289;DHT22;28991;52.028;5.526;2022-09-01T05:52:32;23.10;43.70
40289;DHT22;28991;52.028;5.526;2022-09-01T05:54:58;23.10;43.70
40289;DHT22;28991;52.028;5.526;2022-09-01T05:57:25;23.10;43.60
40289;DHT22;28991;52.028;5.526;2022-09-01T05:59:51;23.10;43.70
40289;DHT22;28991;52.028;5.526;2022-09-01T06:02:22;23.10;43.80
40289;DHT22;28991;52.028;5.526;2022-09-01T06:04:47;23.10;43.80
40289;DHT22;28991;52.028;5.526;2022-09-01T06:07:15;24.40;44.50
40289;DHT22;28991;52.028;5.526;2022-09-01T06:09:45;23.00;43.80
40289;DHT22;28991;52.028;5.526;2022-09-01T06:12:11;23.10;43.80
40289;DHT22;28991;52.028;5.526;2022-09-01T06:14:42;23.10;43.90
40289;DHT22;28991;52.028;5.526;2022-09-01T06:17:09;23.30;44.00
40289;DHT22;28991;52.028;5.526;2022-09-01T06:19:36;23.00;44.40
40289;DHT22;28991;52.028;5.526;2022-09-01T06:22:03;23.10;43.90
40289;DHT22;28991;52.028;5.526;2022-09-01T06:24:28;23.00;43.70
40289;DHT22;28991;52.028;5.526;2022-09-01T06:26:54;23.00;43.70
40289;DHT22;28991;52.028;5.526;2022-09-01T06:29:19;23.00;43.80
40289;DHT22;28991;52.028;5.526;2022-09-01T06:31:45;23.00;44.00
40289;DHT22;28991;52.028;5.526;2022-09-01T06:34:15;23.00;44.00
40289;DHT22;28991;52.028;5.526;2022-09-01T06:36:43;23.00;43.80
40289;DHT22;28991;52.028;5.526;2022-09-01T06:39:10;23.10;43.80
40289;DHT22;28991;52.028;5.526;2022-09-01T06:41:47;23.10;43.70
40289;DHT22;28991;52.028;5.526;2022-09-01T06:44:14;23.20;43.70
40289;DHT22;28991;52.028;5.526;2022-09-01T06:46:39;23.20;43.50
40289;DHT22;28991;52.028;5.526;2022-09-01T06:49:05;23.20;43.50
40289;DHT22;28991;52.028;5.526;2022-09-01T06:53:57;23.20;47.80
40289;DHT22;28991;52.028;5.526;2022-09-01T06:56:29;23.30;43.70
40289;DHT22;28991;52.028;5.526;2022-09-01T06:58:56;23.30;43.90
40289;DHT22;28991;52.028;5.526;2022-09-01T07:01:23;23.30;44.00
40289;DHT22;28991;52.028;5.526;2022-09-01T07:03:53;23.40;44.30
40289;DHT22;28991;52.028;5.526;2022-09-01T07:06:21;23.70;44.80
40289;DHT22;28991;52.028;5.526;2022-09-01T07:08:53;23.40;45.20
40289;DHT22;28991;52.028;5.526;2022-09-01T07:11:31;23.40;45.20
40289;DHT22;28991;52.028;5.526;2022-09-01T07:14:01;23.50;45.00
40289;DHT22;28991;52.028;5.526;2022-09-01T07:16:29;23.60;45.30
40289;DHT22;28991;52.028;5.526;2022-09-01T07:18:58;24.00;45.10
40289;DHT22;28991;52.028;5.526;2022-09-01T07:21:27;23.70;45.00
40289;DHT22;28991;52.028;5.526;2022-09-01T07:23:52;23.80;45.00
40289;DHT22;28991;52.028;5.526;2022-09-01T07:26:18;23.80;44.80
40289;DHT22;28991;52.028;5.526;2022-09-01T07:28:45;23.80;44.60
40289;DHT22;28991;52.028;5.526;2022-09-01T07:31:26;23.90;44.40
40289;DHT22;28991;52.028;5.526;2022-09-01T07:33:53;24.00;44.10
40289;DHT22;28991;52.028;5.526;2022-09-01T07:36:21;24.10;43.90
40289;DHT22;28991;52.028;5.526;2022-09-01T07:38:47;24.00;43.70
40289;DHT22;28991;52.028;5.526;2022-09-01T07:41:19;24.00;43.20
40289;DHT22;28991;52.028;5.526;2022-09-01T07:43:46;24.00;43.10
40289;DHT22;28991;52.028;5.526;2022-09-01T07:46:11;24.00;43.10
40289;DHT22;28991;52.028;5.526;2022-09-01T07:48:38;24.00;42.90
40289;DHT22;28991;52.028;5.526;2022-09-01T07:51:04;24.00;42.80
40289;DHT22;28991;52.028;5.526;2022-09-01T07:53:32;24.00;42.70
40289;DHT22;28991;52.028;5.526;2022-09-01T07:56:03;24.00;42.60
40289;DHT22;28991;52.028;5.526;2022-09-01T07:58:32;24.00;42.60
40289;DHT22;28991;52.028;5.526;2022-09-01T08:00:58;24.00;42.50
40289;DHT22;28991;52.028;5.526;2022-09-01T08:03:28;24.00;42.50
40289;DHT22;28991;52.028;5.526;2022-09-01T08:05:54;23.90;42.50
40289;DHT22;28991;52.028;5.526;2022-09-01T08:08:25;24.20;42.60
40289;DHT22;28991;52.028;5.526;2022-09-01T08:10:51;23.90;42.50
40289;DHT22;28991;52.028;5.526;2022-09-01T08:13:17;23.80;42.30
40289;DHT22;28991;52.028;5.526;2022-09-01T08:15:43;23.90;42.50
40289;DHT22;28991;52.028;5.526;2022-09-01T08:18:08;23.80;42.60
40289;DHT22;28991;52.028;5.526;2022-09-01T08:20:37;23.70;42.50
40289;DHT22;28991;52.028;5.526;2022-09-01T08:23:05;23.80;42.60
40289;DHT22;28991;52.028;5.526;2022-09-01T08:25:33;23.80;42.70
40289;DHT22;28991;52.028;5.526;2022-09-01T08:28:01;23.80;42.70
40289;DHT22;28991;52.028;5.526;2022-09-01T08:30:27;23.70;42.80
40289;DHT22;28991;52.028;5.526;2022-09-01T08:32:53;23.70;42.80
40289;DHT22;28991;52.028;5.526;2022-09-01T08:35:18;23.60;42.80
40289;DHT22;28991;52.028;5.526;2022-09-01T08:37:44;23.70;43.50
40289;DHT22;28991;52.028;5.526;2022-09-01T08:40:13;23.70;43.10
40289;DHT22;28991;52.028;5.526;2022-09-01T08:42:43;23.60;43.00
40289;DHT22;28991;52.028;5.526;2022-09-01T08:47:46;23.70;43.30
40289;DHT22;28991;52.028;5.526;2022-09-01T08:50:13;23.70;43.10
40289;DHT22;28991;52.028;5.526;2022-09-01T08:52:46;23.70;43.30
40289;DHT22;28991;52.028;5.526;2022-09-01T08:57:45;23.70;43.40
40289;DHT22;28991;52.028;5.526;2022-09-01T09:00:15;23.70;43.30
40289;DHT22;28991;52.028;5.526;2022-09-01T09:10:50;23.70;42.80
40289;DHT22;28991;52.028;5.526;2022-09-01T09:13:40;23.70;42.70
40289;DHT22;28991;52.028;5.526;2022-09-01T09:16:14;23.70;42.70
40289;DHT22;28991;52.028;5.526;2022-09-01T09:18:50;23.60;42.30
40289;DHT22;28991;52.028;5.526;2022-09-01T09:21:38;23.60;42.30
40289;DHT22;28991;52.028;5.526;2022-09-01T09:25:09;23.60;42.30
40289;DHT22;28991;52.028;5.526;2022-09-01T09:27:38;23.50;42.40
40289;DHT22;28991;52.028;5.526;2022-09-01T09:30:10;23.70;42.60
40289;DHT22;28991;52.028;5.526;2022-09-01T09:35:24;23.80;43.10
40289;DHT22;28991;52.028;5.526;2022-09-01T09:37:50;23.90;43.10
40289;DHT22;28991;52.028;5.526;2022-09-01T09:40:19;23.90;43.10
40289;DHT22;28991;52.028;5.526;2022-09-01T09:45:35;24.00;43.00
40289;DHT22;28991;52.028;5.526;2022-09-01T09:48:28;24.00;42.90
40289;DHT22;28991;52.028;5.526;2022-09-01T09:50:54;24.00;42.80
40289;DHT22;28991;52.028;5.526;2022-09-01T09:56:00;24.00;42.60
40289;DHT22;28991;52.028;5.526;2022-09-01T09:58:38;24.00;42.50
40289;DHT22;28991;52.028;5.526;2022-09-01T10:04:01;24.00;41.30
40289;DHT22;28991;52.028;5.526;2022-09-01T10:08:57;24.10;41.80
40289;DHT22;28991;52.028;5.526;2022-09-01T10:11:38;24.10;41.90
40289;DHT22;28991;52.028;5.526;2022-09-01T10:14:13;24.00;41.60
40289;DHT22;28991;52.028;5.526;2022-09-01T10:16:40;24.10;41.20
40289;DHT22;28991;52.028;5.526;2022-09-01T10:19:11;24.10;40.70
40289;DHT22;28991;52.028;5.526;2022-09-01T10:21:39;24.00;40.70
40289;DHT22;28991;52.028;5.526;2022-09-01T10:24:30;23.70;40.40
40289;DHT22;28991;52.028;5.526;2022-09-01T10:26:59;24.00;40.20
40289;DHT22;28991;52.028;5.526;2022-09-01T10:29:30;24.00;40.10
40289;DHT22;28991;52.028;5.526;2022-09-01T10:31:59;24.00;40.50
40289;DHT22;28991;52.028;5.526;2022-09-01T10:34:29;24.00;40.20
40289;DHT22;28991;52.028;5.526;2022-09-01T10:36:57;24.00;40.50
40289;DHT22;28991;52.028;5.526;2022-09-01T10:39:23;24.00;39.90
40289;DHT22;28991;52.028;5.526;2022-09-01T10:41:55;24.00;40.30
40289;DHT22;28991;52.028;5.526;2022-09-01T10:44:24;24.00;40.10
40289;DHT22;28991;52.028;5.526;2022-09-01T10:46:55;24.00;39.90
40289;DHT22;28991;52.028;5.526;2022-09-01T10:52:10;24.00;39.80
40289;DHT22;28991;52.028;5.526;2022-09-01T10:59:34;24.00;38.70
40289;DHT22;28991;52.028;5.526;2022-09-01T11:07:02;23.90;38.70
40289;DHT22;28991;52.028;5.526;2022-09-01T11:09:38;24.00;38.60
40289;DHT22;28991;52.028;5.526;2022-09-01T11:12:13;24.00;38.70
40289;DHT22;28991;52.028;5.526;2022-09-01T11:17:35;24.00;38.60
40289;DHT22;28991;52.028;5.526;2022-09-01T11:22:45;24.00;38.70
40289;DHT22;28991;52.028;5.526;2022-09-01T11:25:31;24.30;39.00
40289;DHT22;28991;52.028;5.526;2022-09-01T11:30:34;23.80;37.70
40289;DHT22;28991;52.028;5.526;2022-09-01T11:35:44;24.00;38.60
40289;DHT22;28991;52.028;5.526;2022-09-01T11:38:14;24.00;38.30
40289;DHT22;28991;52.028;5.526;2022-09-01T11:40:40;23.80;38.60
40289;DHT22;28991;52.028;5.526;2022-09-01T11:43:10;24.00;38.40
40289;DHT22;28991;52.028;5.526;2022-09-01T11:46:10;24.00;38.70
40289;DHT22;28991;52.028;5.526;2022-09-01T11:48:38;24.10;38.30
40289;DHT22;28991;52.028;5.526;2022-09-01T11:51:04;24.10;38.40
40289;DHT22;28991;52.028;5.526;2022-09-01T11:53:29;24.10;38.50
40289;DHT22;28991;52.028;5.526;2022-09-01T11:55:56;24.10;38.80
40289;DHT22;28991;52.028;5.526;2022-09-01T11:58:35;24.10;37.80
40289;DHT22;28991;52.028;5.526;2022-09-01T12:01:19;22.40;38.20
40289;DHT22;28991;52.028;5.526;2022-09-01T12:03:46;24.20;38.70
40289;DHT22;28991;52.028;5.526;2022-09-01T12:06:21;24.80;38.80
40289;DHT22;28991;52.028;5.526;2022-09-01T12:09:02;24.20;38.20
40289;DHT22;28991;52.028;5.526;2022-09-01T12:11:31;24.20;38.90
40289;DHT22;28991;52.028;5.526;2022-09-01T12:14:06;24.30;39.10
40289;DHT22;28991;52.028;5.526;2022-09-01T12:16:35;24.20;38.00
40289;DHT22;28991;52.028;5.526;2022-09-01T12:19:03;24.20;38.40
40289;DHT22;28991;52.028;5.526;2022-09-01T12:21:35;24.20;38.30
40289;DHT22;28991;52.028;5.526;2022-09-01T12:24:19;24.20;38.10
40289;DHT22;28991;52.028;5.526;2022-09-01T12:26:48;24.20;38.50
40289;DHT22;28991;52.028;5.526;2022-09-01T12:29:15;24.20;38.30
40289;DHT22;28991;52.028;5.526;2022-09-01T12:31:43;24.20;38.60
40289;DHT22;28991;52.028;5.526;2022-09-01T12:34:35;24.30;38.60
40289;DHT22;28991;52.028;5.526;2022-09-01T12:39:46;24.10;38.40
40289;DHT22;28991;52.028;5.526;2022-09-01T12:49:59;24.10;38.00
40289;DHT22;28991;52.028;5.526;2022-09-01T12:52:26;24.10;38.60
40289;DHT22;28991;52.028;5.526;2022-09-01T12:57:29;24.10;38.20
40289;DHT22;28991;52.028;5.526;2022-09-01T13:00:18;24.20;38.60
40289;DHT22;28991;52.028;5.526;2022-09-01T13:02:46;24.10;38.60
40289;DHT22;28991;52.028;5.526;2022-09-01T13:08:28;24.10;38.50
40289;DHT22;28991;52.028;5.526;2022-09-01T13:10:58;24.10;38.60
40289;DHT22;28991;52.028;5.526;2022-09-01T13:13:26;24.40;38.40
40289;DHT22;28991;52.028;5.526;2022-09-01T13:15:56;24.10;38.70
40289;DHT22;28991;52.028;5.526;2022-09-01T13:18:24;24.10;38.70
40289;DHT22;28991;52.028;5.526;2022-09-01T13:20:51;24.10;38.60
40289;DHT22;28991;52.028;5.526;2022-09-01T13:23:18;26.50;40.00
40289;DHT22;28991;52.028;5.526;2022-09-01T13:25:44;24.10;38.40
40289;DHT22;28991;52.028;5.526;2022-09-01T13:28:11;24.30;38.80
40289;DHT22;28991;52.028;5.526;2022-09-01T13:30:38;24.10;38.40
40289;DHT22;28991;52.028;5.526;2022-09-01T13:33:03;24.10;38.30
40289;DHT22;28991;52.028;5.526;2022-09-01T13:35:29;24.10;38.20
40289;DHT22;28991;52.028;5.526;2022-09-01T13:37:55;24.00;38.40
40289;DHT22;28991;52.028;5.526;2022-09-01T13:40:21;24.20;38.70
40289;DHT22;28991;52.028;5.526;2022-09-01T13:42:51;24.10;38.60
40289;DHT22;28991;52.028;5.526;2022-09-01T13:45:19;24.10;38.50
40289;DHT22;28991;52.028;5.526;2022-09-01T13:47:46;24.10;38.20
40289;DHT22;28991;52.028;5.526;2022-09-01T13:50:16;24.10;38.10
40289;DHT22;28991;52.028;5.526;2022-09-01T13:52:46;24.20;38.20
40289;DHT22;28991;52.028;5.526;2022-09-01T13:55:16;24.20;38.60
40289;DHT22;28991;52.028;5.526;2022-09-01T13:57:42;24.10;38.60
40289;DHT22;28991;52.028;5.526;2022-09-01T14:00:11;24.20;38.70
40289;DHT22;28991;52.028;5.526;2022-09-01T14:02:40;24.10;38.00
40289;DHT22;28991;52.028;5.526;2022-09-01T14:05:07;24.20;38.30
40289;DHT22;28991;52.028;5.526;2022-09-01T14:07:33;24.20;38.40
40289;DHT22;28991;52.028;5.526;2022-09-01T14:09:59;24.20;38.40
40289;DHT22;28991;52.028;5.526;2022-09-01T14:12:24;24.20;38.30
40289;DHT22;28991;52.028;5.526;2022-09-01T14:14:50;24.20;38.50
40289;DHT22;28991;52.028;5.526;2022-09-01T14:17:16;24.20;38.10
40289;DHT22;28991;52.028;5.526;2022-09-01T14:19:41;24.20;38.50
40289;DHT22;28991;52.028;5.526;2022-09-01T14:22:07;24.10;38.00
40289;DHT22;28991;52.028;5.526;2022-09-01T14:24:33;24.40;38.70
40289;DHT22;28991;52.028;5.526;2022-09-01T14:27:00;24.20;38.20
40289;DHT22;28991;52.028;5.526;2022-09-01T14:29:26;24.20;38.00
40289;DHT22;28991;52.028;5.526;2022-09-01T14:31:52;24.10;38.40
40289;DHT22;28991;52.028;5.526;2022-09-01T14:34:22;24.20;38.20
40289;DHT22;28991;52.028;5.526;2022-09-01T14:36:51;24.20;38.70
40289;DHT22;28991;52.028;5.526;2022-09-01T14:39:22;24.20;37.80
40289;DHT22;28991;52.028;5.526;2022-09-01T14:41:48;24.20;38.10
40289;DHT22;28991;52.028;5.526;2022-09-01T14:44:13;24.20;38.40
40289;DHT22;28991;52.028;5.526;2022-09-01T14:46:39;24.10;37.90
40289;DHT22;28991;52.028;5.526;2022-09-01T14:49:05;24.20;38.20
40289;DHT22;28991;52.028;5.526;2022-09-01T14:51:32;24.20;38.60
40289;DHT22;28991;52.028;5.526;2022-09-01T14:53:58;24.20;38.60
40289;DHT22;28991;52.028;5.526;2022-09-01T14:56:24;24.20;37.90
40289;DHT22;28991;52.028;5.526;2022-09-01T14:58:50;24.20;38.70
40289;DHT22;28991;52.028;5.526;2022-09-01T15:01:19;24.20;38.20
40289;DHT22;28991;52.028;5.526;2022-09-01T15:03:49;24.20;38.20
40289;DHT22;28991;52.028;5.526;2022-09-01T15:06:16;24.20;38.00
40289;DHT22;28991;52.028;5.526;2022-09-01T15:08:43;24.20;38.10
40289;DHT22;28991;52.028;5.526;2022-09-01T15:11:11;24.10;38.10
40289;DHT22;28991;52.028;5.526;2022-09-01T15:13:38;24.20;38.00
40289;DHT22;28991;52.028;5.526;2022-09-01T15:16:04;24.70;38.40
40289;DHT22;28991;52.028;5.526;2022-09-01T15:18:30;24.20;37.60
40289;DHT22;28991;52.028;5.526;2022-09-01T15:20:56;24.20;38.20
40289;DHT22;28991;52.028;5.526;2022-09-01T15:23:24;24.20;37.50
40289;DHT22;28991;52.028;5.526;2022-09-01T15:25:53;24.20;37.50
40289;DHT22;28991;52.028;5.526;2022-09-01T15:28:19;24.60;38.00
40289;DHT22;28991;52.028;5.526;2022-09-01T15:30:45;24.20;37.90
40289;DHT22;28991;52.028;5.526;2022-09-01T15:33:11;24.20;38.30
40289;DHT22;28991;52.028;5.526;2022-09-01T15:35:38;24.30;37.60
40289;DHT22;28991;52.028;5.526;2022-09-01T15:38:04;24.30;38.10
40289;DHT22;28991;52.028;5.526;2022-09-01T15:40:31;24.30;38.40
40289;DHT22;28991;52.028;5.526;2022-09-01T15:42:57;24.30;38.00
40289;DHT22;28991;52.028;5.526;2022-09-01T15:45:25;24.20;38.00
40289;DHT22;28991;52.028;5.526;2022-09-01T15:47:52;24.20;37.00
40289;DHT22;28991;52.028;5.526;2022-09-01T15:50:20;24.20;37.70
40289;DHT22;28991;52.028;5.526;2022-09-01T15:52:52;24.30;37.30
40289;DHT22;28991;52.028;5.526;2022-09-01T15:55:30;24.20;37.20
40289;DHT22;28991;52.028;5.526;2022-09-01T15:58:01;24.20;37.70
40289;DHT22;28991;52.028;5.526;2022-09-01T16:00:27;24.20;37.60
40289;DHT22;28991;52.028;5.526;2022-09-01T16:02:53;24.30;37.50
40289;DHT22;28991;52.028;5.526;2022-09-01T16:05:20;24.30;38.00
40289;DHT22;28991;52.028;5.526;2022-09-01T16:07:46;24.20;38.30
40289;DHT22;28991;52.028;5.526;2022-09-01T16:10:12;24.20;38.30
40289;DHT22;28991;52.028;5.526;2022-09-01T16:12:39;24.30;38.30
40289;DHT22;28991;52.028;5.526;2022-09-01T16:15:10;24.30;38.30
40289;DHT22;28991;52.028;5.526;2022-09-01T16:23:45;24.30;38.50
40289;DHT22;28991;52.028;5.526;2022-09-01T16:26:13;24.30;38.60
40289;DHT22;28991;52.028;5.526;2022-09-01T16:28:41;24.30;38.60
40289;DHT22;28991;52.028;5.526;2022-09-01T16:31:18;24.60;38.80
40289;DHT22;28991;52.028;5.526;2022-09-01T16:33:50;24.30;38.60
40289;DHT22;28991;52.028;5.526;2022-09-01T16:39:08;24.30;38.70
40289;DHT22;28991;52.028;5.526;2022-09-01T16:41:46;24.40;38.80
40289;DHT22;28991;52.028;5.526;2022-09-01T16:47:02;24.40;38.90
40289;DHT22;28991;52.028;5.526;2022-09-01T16:49:55;24.40;39.00
40289;DHT22;28991;52.028;5.526;2022-09-01T16:52:34;24.40;39.00
40289;DHT22;28991;52.028;5.526;2022-09-01T16:58:03;24.40;39.10
40289;DHT22;28991;52.028;5.526;2022-09-01T17:03:15;24.40;39.30
40289;DHT22;28991;52.028;5.526;2022-09-01T17:05:55;24.30;39.30
40289;DHT22;28991;52.028;5.526;2022-09-01T17:08:28;24.30;39.30
40289;DHT22;28991;52.028;5.526;2022-09-01T17:11:04;24.30;39.40
40289;DHT22;28991;52.028;5.526;2022-09-01T17:13:43;24.30;39.40